sensor_id;sensor_type;location;lat;lon;timestamp;pressure;altitude;pressure_sealevel;temperature;humidity
47670;BME280;33408;52.062;11.722;2022-11-20T00:02:09;100870.19;;;-1.96;100.00
47670;BME280;33408;52.062;11.722;2022-11-20T00:04:36;100875.19;;;-1.99;100.00
47670;BME280;33408;52.062;11.722;2022-11-20T00:07:02;100872.97;;;-1.89;100.00
47670;BME280;33408;52.062;11.722;2022-11-20T00:09:29;100874.94;;;-1.81;100.00
47670;BME280;33408;52.062;11.722;2022-11-20T00:11:56;100869.91;;;-1.80;100.00
47670;BME280;33408;52.062;11.722;2022-11-20T00:14:22;100873.09;;;-1.86;100.00
47670;BME280;33408;52.062;11.722;2022-11-20T00:16:49;100864.78;;;-1.81;100.00
47670;BME280;33408;52.062;11.722;2022-11-20T00:19:17;100856.47;;;-1.76;100.00
47670;BME280;33408;52.062;11.722;2022-11-20T00:21:43;100861.50;;;-1.77;100.00
47670;BME280;33408;52.062;11.722;2022-11-20T00:24:10;100859.78;;;-1.78;100.00
47670;BME280;33408;52.062;11.722;2022-11-20T00:26:37;100857.16;;;-1.81;100.00
47670;BME280;33408;52.062;11.722;2022-11-20T00:29:03;100850.16;;;-1.87;100.00
47670;BME280;33408;52.062;11.722;2022-11-20T00:31:30;100853.72;;;-1.82;100.00
47670;BME280;33408;52.062;11.722;2022-11-20T00:33:58;100855.19;;;-1.89;100.00
47670;BME280;33408;52.062;11.722;2022-11-20T00:36:27;100859.78;;;-1.78;100.00
47670;BME280;33408;52.062;11.722;2022-11-20T00:38:55;100852.28;;;-1.75;100.00
47670;BME280;33408;52.062;11.722;2022-11-20T00:41:23;100847.31;;;-1.71;100.00
47670;BME280;33408;52.062;11.722;2022-11-20T00:43:52;100854.47;;;-1.60;100.00
47670;BME280;33408;52.062;11.722;2022-11-20T00:46:19;100852.03;;;-1.57;100.00
47670;BME280;33408;52.062;11.722;2022-11-20T00:48:47;100851.97;;;-1.59;100.00
47670;BME280;33408;52.062;11.722;2022-11-20T00:51:15;100839.97;;;-1.63;100.00
47670;BME280;33408;52.062;11.722;2022-11-20T00:53:44;100841.03;;;-1.56;100.00
47670;BME280;33408;52.062;11.722;2022-11-20T00:56:14;100840.16;;;-1.57;100.00
47670;BME280;33408;52.062;11.722;2022-11-20T00:58:42;100835.88;;;-1.59;100.00
47670;BME280;33408;52.062;11.722;2022-11-20T01:01:11;100842.75;;;-1.55;100.00
47670;BME280;33408;52.062;11.722;2022-11-20T01:03:39;100836.13;;;-1.50;100.00
47670;BME280;33408;52.062;11.722;2022-11-20T01:06:09;100833.16;;;-1.38;100.00
47670;BME280;33408;52.062;11.722;2022-11-20T01:08:37;100836.34;;;-1.44;100.00
47670;BME280;33408;52.062;11.722;2022-11-20T01:11:07;100831.41;;;-1.39;100.00
47670;BME280;33408;52.062;11.722;2022-11-20T01:13:35;100834.09;;;-1.35;100.00
47670;BME280;33408;52.062;11.722;2022-11-20T01:16:05;100839.03;;;-1.39;100.00
47670;BME280;33408;52.062;11.722;2022-11-20T01:18:32;100834.66;;;-1.43;100.00
47670;BME280;33408;52.062;11.722;2022-11-20T01:21:01;100828.97;;;-1.36;100.00
47670;BME280;33408;52.062;11.722;2022-11-20T01:23:31;100827.31;;;-1.34;100.00
47670;BME280;33408;52.062;11.722;2022-11-20T01:26:00;100825.56;;;-1.37;100.00
47670;BME280;33408;52.062;11.722;2022-11-20T01:28:29;100825.47;;;-1.40;100.00
47670;BME280;33408;52.062;11.722;2022-11-20T01:30:56;100819.34;;;-1.45;100.00
47670;BME280;33408;52.062;11.722;2022-11-20T01:33:23;100820.78;;;-1.53;100.00
47670;BME280;33408;52.062;11.722;2022-11-20T01:35:50;100820.41;;;-1.66;100.00
47670;BME280;33408;52.062;11.722;2022-11-20T01:38:17;100816.97;;;-1.66;100.00
47670;BME280;33408;52.062;11.722;2022-11-20T01:40:45;100818.03;;;-1.61;100.00
47670;BME280;33408;52.062;11.722;2022-11-20T01:43:14;100818.19;;;-1.55;100.00
47670;BME280;33408;52.062;11.722;2022-11-20T01:45:56;100815.59;;;-1.56;100.00
47670;BME280;33408;52.062;11.722;2022-11-20T01:48:27;100812.03;;;-1.61;100.00
47670;BME280;33408;52.062;11.722;2022-11-20T01:50:57;100815.47;;;-1.61;100.00
47670;BME280;33408;52.062;11.722;2022-11-20T01:53:27;100814.25;;;-1.45;100.00
47670;BME280;33408;52.062;11.722;2022-11-20T01:55:57;100808.22;;;-1.49;100.00
47670;BME280;33408;52.062;11.722;2022-11-20T01:58:28;100804.88;;;-1.48;100.00
47670;BME280;33408;52.062;11.722;2022-11-20T02:00:58;100809.31;;;-1.40;100.00
47670;BME280;33408;52.062;11.722;2022-11-20T02:03:25;100798.25;;;-1.42;100.00
47670;BME280;33408;52.062;11.722;2022-11-20T02:05:55;100796.66;;;-1.66;100.00
47670;BME280;33408;52.062;11.722;2022-11-20T02:08:24;100806.47;;;-1.77;100.00
47670;BME280;33408;52.062;11.722;2022-11-20T02:10:50;100797.13;;;-1.78;100.00
47670;BME280;33408;52.062;11.722;2022-11-20T02:13:17;100802.63;;;-1.91;100.00
47670;BME280;33408;52.062;11.722;2022-11-20T02:16:03;100796.06;;;-1.85;100.00
47670;BME280;33408;52.062;11.722;2022-11-20T02:18:30;100783.94;;;-1.66;100.00
47670;BME280;33408;52.062;11.722;2022-11-20T02:21:01;100790.13;;;-1.58;100.00
47670;BME280;33408;52.062;11.722;2022-11-20T02:23:33;100790.59;;;-1.70;100.00
47670;BME280;33408;52.062;11.722;2022-11-20T02:26:06;100786.00;;;-1.81;100.00
47670;BME280;33408;52.062;11.722;2022-11-20T02:28:35;100786.91;;;-1.79;100.00
47670;BME280;33408;52.062;11.722;2022-11-20T02:31:02;100784.88;;;-1.90;100.00
47670;BME280;33408;52.062;11.722;2022-11-20T02:33:28;100788.28;;;-1.89;100.00
47670;BME280;33408;52.062;11.722;2022-11-20T02:35:55;100788.69;;;-2.03;100.00
47670;BME280;33408;52.062;11.722;2022-11-20T02:38:22;100787.81;;;-2.03;100.00
47670;BME280;33408;52.062;11.722;2022-11-20T02:40:48;100791.34;;;-1.99;100.00
47670;BME280;33408;52.062;11.722;2022-11-20T02:43:16;100789.03;;;-2.17;100.00
47670;BME280;33408;52.062;11.722;2022-11-20T02:45:43;100781.34;;;-2.19;100.00
47670;BME280;33408;52.062;11.722;2022-11-20T02:48:10;100779.47;;;-2.25;100.00
47670;BME280;33408;52.062;11.722;2022-11-20T02:50:37;100779.53;;;-2.23;100.00
47670;BME280;33408;52.062;11.722;2022-11-20T02:53:05;100780.16;;;-2.29;100.00
47670;BME280;33408;52.062;11.722;2022-11-20T02:55:32;100772.78;;;-2.47;100.00
47670;BME280;33408;52.062;11.722;2022-11-20T02:57:59;100778.75;;;-2.46;100.00
47670;BME280;33408;52.062;11.722;2022-11-20T03:00:27;100780.50;;;-2.44;100.00
47670;BME280;33408;52.062;11.722;2022-11-20T03:02:53;100774.13;;;-2.57;100.00
47670;BME280;33408;52.062;11.722;2022-11-20T03:05:20;100776.84;;;-2.52;100.00
47670;BME280;33408;52.062;11.722;2022-11-20T03:07:47;100767.97;;;-2.63;100.00
47670;BME280;33408;52.062;11.722;2022-11-20T03:10:13;100768.91;;;-2.61;100.00
47670;BME280;33408;52.062;11.722;2022-11-20T03:12:40;100763.41;;;-2.73;100.00
47670;BME280;33408;52.062;11.722;2022-11-20T03:15:08;100768.06;;;-2.84;100.00
47670;BME280;33408;52.062;11.722;2022-11-20T03:17:36;100767.69;;;-2.71;100.00
47670;BME280;33408;52.062;11.722;2022-11-20T03:20:07;100762.28;;;-2.80;100.00
47670;BME280;33408;52.062;11.722;2022-11-20T03:22:34;100768.69;;;-2.90;100.00
47670;BME280;33408;52.062;11.722;2022-11-20T03:25:00;100762.66;;;-2.94;100.00
47670;BME280;33408;52.062;11.722;2022-11-20T03:27:31;100765.59;;;-2.83;100.00
47670;BME280;33408;52.062;11.722;2022-11-20T03:29:58;100760.13;;;-2.94;100.00
47670;BME280;33408;52.062;11.722;2022-11-20T03:32:25;100755.88;;;-2.95;100.00
47670;BME280;33408;52.062;11.722;2022-11-20T03:34:52;100768.38;;;-2.99;100.00
47670;BME280;33408;52.062;11.722;2022-11-20T03:37:19;100762.66;;;-2.94;100.00
47670;BME280;33408;52.062;11.722;2022-11-20T03:39:46;100766.53;;;-3.03;100.00
47670;BME280;33408;52.062;11.722;2022-11-20T03:42:12;100772.34;;;-3.06;100.00
47670;BME280;33408;52.062;11.722;2022-11-20T03:44:55;100761.41;;;-3.05;100.00
47670;BME280;33408;52.062;11.722;2022-11-20T03:47:22;100757.81;;;-2.87;100.00
47670;BME280;33408;52.062;11.722;2022-11-20T03:49:48;100761.47;;;-3.03;100.00
47670;BME280;33408;52.062;11.722;2022-11-20T03:52:16;100758.31;;;-2.98;100.00
47670;BME280;33408;52.062;11.722;2022-11-20T03:54:43;100751.66;;;-2.94;100.00
47670;BME280;33408;52.062;11.722;2022-11-20T03:57:09;100750.75;;;-2.96;100.00
47670;BME280;33408;52.062;11.722;2022-11-20T03:59:36;100756.31;;;-2.82;100.00
47670;BME280;33408;52.062;11.722;2022-11-20T04:02:02;100748.22;;;-2.72;100.00
47670;BME280;33408;52.062;11.722;2022-11-20T04:04:29;100738.59;;;-2.81;100.00
47670;BME280;33408;52.062;11.722;2022-11-20T04:06:55;100743.44;;;-2.87;100.00
47670;BME280;33408;52.062;11.722;2022-11-20T04:09:24;100740.19;;;-2.84;100.00
47670;BME280;33408;52.062;11.722;2022-11-20T04:11:50;100748.69;;;-2.82;100.00
47670;BME280;33408;52.062;11.722;2022-11-20T04:14:17;100733.47;;;-2.82;100.00
47670;BME280;33408;52.062;11.722;2022-11-20T04:16:43;100738.09;;;-2.72;100.00
47670;BME280;33408;52.062;11.722;2022-11-20T04:19:12;100737.84;;;-2.78;100.00
47670;BME280;33408;52.062;11.722;2022-11-20T04:21:39;100738.66;;;-2.79;100.00
47670;BME280;33408;52.062;11.722;2022-11-20T04:24:07;100739.69;;;-2.74;100.00
47670;BME280;33408;52.062;11.722;2022-11-20T04:26:35;100733.69;;;-2.76;100.00
47670;BME280;33408;52.062;11.722;2022-11-20T04:29:02;100732.78;;;-2.78;100.00
47670;BME280;33408;52.062;11.722;2022-11-20T04:31:31;100723.50;;;-2.78;100.00
47670;BME280;33408;52.062;11.722;2022-11-20T04:33:59;100736.06;;;-2.81;100.00
47670;BME280;33408;52.062;11.722;2022-11-20T04:36:27;100731.03;;;-2.79;100.00
47670;BME280;33408;52.062;11.722;2022-11-20T04:38:54;100735.16;;;-2.59;100.00
47670;BME280;33408;52.062;11.722;2022-11-20T04:41:22;100738.44;;;-2.61;100.00
47670;BME280;33408;52.062;11.722;2022-11-20T04:43:52;100735.00;;;-2.63;100.00
47670;BME280;33408;52.062;11.722;2022-11-20T04:46:24;100719.25;;;-2.53;100.00
47670;BME280;33408;52.062;11.722;2022-11-20T04:48:51;100721.56;;;-2.61;100.00
47670;BME280;33408;52.062;11.722;2022-11-20T04:51:18;100725.97;;;-2.55;100.00
47670;BME280;33408;52.062;11.722;2022-11-20T04:53:45;100733.06;;;-2.45;100.00
47670;BME280;33408;52.062;11.722;2022-11-20T04:56:12;100727.88;;;-2.49;100.00
47670;BME280;33408;52.062;11.722;2022-11-20T04:58:39;100726.34;;;-2.44;100.00
47670;BME280;33408;52.062;11.722;2022-11-20T05:01:09;100731.53;;;-2.41;100.00
47670;BME280;33408;52.062;11.722;2022-11-20T05:03:36;100728.00;;;-2.21;100.00
47670;BME280;33408;52.062;11.722;2022-11-20T05:06:05;100717.84;;;-2.19;100.00
47670;BME280;33408;52.062;11.722;2022-11-20T05:08:32;100719.34;;;-2.26;100.00
47670;BME280;33408;52.062;11.722;2022-11-20T05:11:00;100719.75;;;-2.13;100.00
47670;BME280;33408;52.062;11.722;2022-11-20T05:13:27;100711.06;;;-2.20;100.00
47670;BME280;33408;52.062;11.722;2022-11-20T05:15:54;100719.75;;;-2.13;100.00
47670;BME280;33408;52.062;11.722;2022-11-20T05:18:22;100723.09;;;-2.14;100.00
47670;BME280;33408;52.062;11.722;2022-11-20T05:20:54;100720.34;;;-2.22;100.00
47670;BME280;33408;52.062;11.722;2022-11-20T05:23:21;100715.25;;;-2.22;100.00
47670;BME280;33408;52.062;11.722;2022-11-20T05:25:48;100712.50;;;-2.28;100.00
47670;BME280;33408;52.062;11.722;2022-11-20T05:28:17;100710.59;;;-2.34;100.00
47670;BME280;33408;52.062;11.722;2022-11-20T05:30:44;100715.44;;;-2.16;100.00
47670;BME280;33408;52.062;11.722;2022-11-20T05:33:10;100713.97;;;-2.35;100.00
47670;BME280;33408;52.062;11.722;2022-11-20T05:35:38;100716.63;;;-2.56;100.00
47670;BME280;33408;52.062;11.722;2022-11-20T05:38:05;100707.09;;;-2.63;100.00
47670;BME280;33408;52.062;11.722;2022-11-20T05:40:34;100701.31;;;-2.59;100.00
47670;BME280;33408;52.062;11.722;2022-11-20T05:43:01;100698.78;;;-2.59;100.00
47670;BME280;33408;52.062;11.722;2022-11-20T05:45:28;100699.75;;;-2.55;100.00
47670;BME280;33408;52.062;11.722;2022-11-20T05:47:57;100692.75;;;-2.61;100.00
47670;BME280;33408;52.062;11.722;2022-11-20T05:50:24;100695.13;;;-2.66;100.00
47670;BME280;33408;52.062;11.722;2022-11-20T05:52:52;100695.31;;;-2.61;100.00
47670;BME280;33408;52.062;11.722;2022-11-20T05:55:19;100701.50;;;-2.53;100.00
47670;BME280;33408;52.062;11.722;2022-11-20T05:57:45;100705.03;;;-2.49;100.00
47670;BME280;33408;52.062;11.722;2022-11-20T06:00:13;100697.59;;;-2.43;100.00
47670;BME280;33408;52.062;11.722;2022-11-20T06:02:40;100694.31;;;-2.41;100.00
47670;BME280;33408;52.062;11.722;2022-11-20T06:05:07;100691.50;;;-2.23;100.00
47670;BME280;33408;52.062;11.722;2022-11-20T06:07:34;100689.06;;;-2.20;100.00
47670;BME280;33408;52.062;11.722;2022-11-20T06:10:02;100688.91;;;-2.24;100.00
47670;BME280;33408;52.062;11.722;2022-11-20T06:12:31;100692.53;;;-2.17;100.00
47670;BME280;33408;52.062;11.722;2022-11-20T06:14:57;100684.59;;;-2.01;100.00
47670;BME280;33408;52.062;11.722;2022-11-20T06:17:26;100695.25;;;-2.11;100.00
47670;BME280;33408;52.062;11.722;2022-11-20T06:19:52;100691.03;;;-2.12;100.00
47670;BME280;33408;52.062;11.722;2022-11-20T06:22:19;100695.50;;;-2.04;100.00
47670;BME280;33408;52.062;11.722;2022-11-20T06:24:45;100699.06;;;-2.24;100.00
47670;BME280;33408;52.062;11.722;2022-11-20T06:27:13;100695.00;;;-2.21;100.00
47670;BME280;33408;52.062;11.722;2022-11-20T06:29:40;100688.88;;;-2.26;100.00
47670;BME280;33408;52.062;11.722;2022-11-20T06:32:06;100689.53;;;-2.31;100.00
47670;BME280;33408;52.062;11.722;2022-11-20T06:34:33;100690.25;;;-2.35;100.00
47670;BME280;33408;52.062;11.722;2022-11-20T06:36:59;100692.78;;;-2.35;100.00
47670;BME280;33408;52.062;11.722;2022-11-20T06:39:26;100704.34;;;-2.44;100.00
47670;BME280;33408;52.062;11.722;2022-11-20T06:41:53;100700.25;;;-2.40;100.00
47670;BME280;33408;52.062;11.722;2022-11-20T06:44:21;100705.72;;;-2.53;100.00
47670;BME280;33408;52.062;11.722;2022-11-20T06:46:47;100705.50;;;-2.60;100.00
47670;BME280;33408;52.062;11.722;2022-11-20T06:49:14;100701.94;;;-2.65;100.00
47670;BME280;33408;52.062;11.722;2022-11-20T06:51:40;100707.34;;;-2.55;100.00
47670;BME280;33408;52.062;11.722;2022-11-20T06:54:07;100698.56;;;-2.65;100.00
47670;BME280;33408;52.062;11.722;2022-11-20T06:56:33;100697.97;;;-2.82;100.00
47670;BME280;33408;52.062;11.722;2022-11-20T06:59:04;100695.63;;;-2.76;100.00
47670;BME280;33408;52.062;11.722;2022-11-20T07:01:32;100699.63;;;-2.83;100.00
47670;BME280;33408;52.062;11.722;2022-11-20T07:03:58;100700.72;;;-2.76;100.00
47670;BME280;33408;52.062;11.722;2022-11-20T07:06:25;100698.34;;;-2.96;100.00
47670;BME280;33408;52.062;11.722;2022-11-20T07:08:52;100699.31;;;-2.92;100.00
47670;BME280;33408;52.062;11.722;2022-11-20T07:11:19;100700.72;;;-2.76;100.00
47670;BME280;33408;52.062;11.722;2022-11-20T07:13:46;100693.91;;;-2.77;100.00
47670;BME280;33408;52.062;11.722;2022-11-20T07:16:12;100702.28;;;-2.80;100.00
47670;BME280;33408;52.062;11.722;2022-11-20T07:18:40;100692.72;;;-2.63;100.00
47670;BME280;33408;52.062;11.722;2022-11-20T07:21:08;100701.56;;;-2.76;100.00
47670;BME280;33408;52.062;11.722;2022-11-20T07:23:36;100696.06;;;-2.64;100.00
47670;BME280;33408;52.062;11.722;2022-11-20T07:26:03;100691.25;;;-2.56;100.00
47670;BME280;33408;52.062;11.722;2022-11-20T07:28:30;100693.13;;;-2.50;100.00
47670;BME280;33408;52.062;11.722;2022-11-20T07:30:57;100684.25;;;-2.38;100.00
47670;BME280;33408;52.062;11.722;2022-11-20T07:33:23;100691.56;;;-2.47;100.00
47670;BME280;33408;52.062;11.722;2022-11-20T07:35:51;100683.47;;;-2.36;100.00
47670;BME280;33408;52.062;11.722;2022-11-20T07:38:18;100687.09;;;-2.54;100.00
47670;BME280;33408;52.062;11.722;2022-11-20T07:40:44;100680.84;;;-2.64;100.00
47670;BME280;33408;52.062;11.722;2022-11-20T07:43:11;100675.84;;;-2.86;100.00
47670;BME280;33408;52.062;11.722;2022-11-20T07:45:38;100669.41;;;-2.77;100.00
47670;BME280;33408;52.062;11.722;2022-11-20T07:48:05;100669.03;;;-2.87;100.00
47670;BME280;33408;52.062;11.722;2022-11-20T07:50:31;100668.81;;;-2.94;100.00
47670;BME280;33408;52.062;11.722;2022-11-20T07:53:03;100667.91;;;-2.96;100.00
47670;BME280;33408;52.062;11.722;2022-11-20T07:55:30;100660.34;;;-3.18;100.00
47670;BME280;33408;52.062;11.722;2022-11-20T07:57:57;100674.72;;;-2.95;100.00
47670;BME280;33408;52.062;11.722;2022-11-20T08:00:25;100686.41;;;-2.74;100.00
47670;BME280;33408;52.062;11.722;2022-11-20T08:02:52;100685.03;;;-2.64;100.00
47670;BME280;33408;52.062;11.722;2022-11-20T08:05:19;100705.03;;;-2.73;100.00
47670;BME280;33408;52.062;11.722;2022-11-20T08:07:45;100693.63;;;-2.36;100.00
47670;BME280;33408;52.062;11.722;2022-11-20T08:10:14;100694.66;;;-2.04;100.00
47670;BME280;33408;52.062;11.722;2022-11-20T08:12:45;100693.03;;;-1.75;100.00
47670;BME280;33408;52.062;11.722;2022-11-20T08:15:30;100674.41;;;-1.75;100.00
47670;BME280;33408;52.062;11.722;2022-11-20T08:18:04;100680.47;;;-1.70;100.00
47670;BME280;33408;52.062;11.722;2022-11-20T08:20:31;100674.59;;;-1.68;100.00
47670;BME280;33408;52.062;11.722;2022-11-20T08:22:58;100674.66;;;-1.37;100.00
47670;BME280;33408;52.062;11.722;2022-11-20T08:25:27;100678.13;;;-1.35;100.00
47670;BME280;33408;52.062;11.722;2022-11-20T08:27:54;100680.63;;;-1.37;100.00
47670;BME280;33408;52.062;11.722;2022-11-20T08:30:22;100688.16;;;-1.11;100.00
47670;BME280;33408;52.062;11.722;2022-11-20T08:32:49;100674.97;;;-0.96;100.00
47670;BME280;33408;52.062;11.722;2022-11-20T08:35:15;100668.06;;;-1.00;100.00
47670;BME280;33408;52.062;11.722;2022-11-20T08:37:45;100667.44;;;-0.93;100.00
47670;BME280;33408;52.062;11.722;2022-11-20T08:40:12;100669.28;;;-1.18;100.00
47670;BME280;33408;52.062;11.722;2022-11-20T08:42:47;100660.56;;;-0.96;100.00
47670;BME280;33408;52.062;11.722;2022-11-20T08:45:14;100660.03;;;-0.84;100.00
47670;BME280;33408;52.062;11.722;2022-11-20T08:47:41;100666.34;;;-0.69;100.00
47670;BME280;33408;52.062;11.722;2022-11-20T08:50:08;100660.53;;;-0.65;100.00
47670;BME280;33408;52.062;11.722;2022-11-20T08:52:34;100670.03;;;-0.58;100.00
47670;BME280;33408;52.062;11.722;2022-11-20T08:55:01;100657.75;;;-0.41;100.00
47670;BME280;33408;52.062;11.722;2022-11-20T08:57:28;100656.97;;;-0.39;100.00
47670;BME280;33408;52.062;11.722;2022-11-20T08:59:58;100659.50;;;-0.39;100.00
47670;BME280;33408;52.062;11.722;2022-11-20T09:02:25;100648.72;;;-0.28;100.00
47670;BME280;33408;52.062;11.722;2022-11-20T09:04:52;100648.97;;;-0.17;100.00
47670;BME280;33408;52.062;11.722;2022-11-20T09:07:19;100658.34;;;-0.16;100.00
47670;BME280;33408;52.062;11.722;2022-11-20T09:09:46;100651.53;;;-0.17;100.00
47670;BME280;33408;52.062;11.722;2022-11-20T09:12:13;100655.53;;;-0.27;100.00
47670;BME280;33408;52.062;11.722;2022-11-20T09:14:40;100658.34;;;-0.16;100.00
47670;BME280;33408;52.062;11.722;2022-11-20T09:17:09;100655.91;;;-0.12;100.00
47670;BME280;33408;52.062;11.722;2022-11-20T09:19:38;100649.03;;;-0.16;100.00
47670;BME280;33408;52.062;11.722;2022-11-20T09:22:05;100643.28;;;-0.07;100.00
47670;BME280;33408;52.062;11.722;2022-11-20T09:24:32;100650.13;;;-0.05;100.00
47670;BME280;33408;52.062;11.722;2022-11-20T09:27:01;100645.75;;;-0.10;100.00
47670;BME280;33408;52.062;11.722;2022-11-20T09:29:28;100646.97;;;0.06;100.00
47670;BME280;33408;52.062;11.722;2022-11-20T09:31:55;100639.56;;;0.16;100.00
47670;BME280;33408;52.062;11.722;2022-11-20T09:34:23;100648.06;;;0.17;100.00
47670;BME280;33408;52.062;11.722;2022-11-20T09:36:49;100641.72;;;-0.01;100.00
47670;BME280;33408;52.062;11.722;2022-11-20T09:39:16;100639.47;;;0.12;100.00
47670;BME280;33408;52.062;11.722;2022-11-20T09:41:56;100632.66;;;0.12;100.00
47670;BME280;33408;52.062;11.722;2022-11-20T09:44:40;100637.69;;;0.09;100.00
47670;BME280;33408;52.062;11.722;2022-11-20T09:47:12;100624.81;;;0.03;100.00
47670;BME280;33408;52.062;11.722;2022-11-20T09:49:55;100627.44;;;0.06;100.00
47670;BME280;33408;52.062;11.722;2022-11-20T09:52:31;100623.88;;;-0.01;100.00
47670;BME280;33408;52.062;11.722;2022-11-20T09:55:02;100625.84;;;0.10;100.00
47670;BME280;33408;52.062;11.722;2022-11-20T09:57:34;100631.28;;;1.61;100.00
47670;BME280;33408;52.062;11.722;2022-11-20T10:00:04;100628.09;;;3.01;100.00
47670;BME280;33408;52.062;11.722;2022-11-20T10:02:37;100622.25;;;3.16;100.00
47670;BME280;33408;52.062;11.722;2022-11-20T10:05:12;100614.44;;;4.05;100.00
47670;BME280;33408;52.062;11.722;2022-11-20T10:07:46;100606.75;;;3.04;100.00
47670;BME280;33408;52.062;11.722;2022-11-20T10:10:15;100595.63;;;1.67;100.00
47670;BME280;33408;52.062;11.722;2022-11-20T10:12:56;100601.81;;;0.82;100.00
47670;BME280;33408;52.062;11.722;2022-11-20T10:15:33;100599.16;;;0.76;100.00
47670;BME280;33408;52.062;11.722;2022-11-20T10:18:15;100598.91;;;0.64;100.00
47670;BME280;33408;52.062;11.722;2022-11-20T10:20:55;100603.63;;;0.44;100.00
47670;BME280;33408;52.062;11.722;2022-11-20T10:23:39;100606.25;;;0.48;100.00
47670;BME280;33408;52.062;11.722;2022-11-20T10:26:17;100604.78;;;0.60;100.00
47670;BME280;33408;52.062;11.722;2022-11-20T10:28:56;100612.44;;;0.60;100.00
47670;BME280;33408;52.062;11.722;2022-11-20T10:31:30;100609.84;;;0.58;100.00
47670;BME280;33408;52.062;11.722;2022-11-20T10:34:00;100606.47;;;0.59;100.00
47670;BME280;33408;52.062;11.722;2022-11-20T10:36:33;100597.25;;;0.67;100.00
47670;BME280;33408;52.062;11.722;2022-11-20T10:39:06;100595.75;;;0.77;100.00
47670;BME280;33408;52.062;11.722;2022-11-20T10:41:37;100592.06;;;0.63;100.00
47670;BME280;33408;52.062;11.722;2022-11-20T10:44:12;100581.91;;;0.64;100.00
47670;BME280;33408;52.062;11.722;2022-11-20T10:46:43;100582.00;;;0.69;100.00
47670;BME280;33408;52.062;11.722;2022-11-20T10:49:12;100578.56;;;0.67;100.00
47670;BME280;33408;52.062;11.722;2022-11-20T10:51:51;100581.97;;;0.67;100.00
47670;BME280;33408;52.062;11.722;2022-11-20T10:54:29;100578.41;;;0.59;100.00
47670;BME280;33408;52.062;11.722;2022-11-20T10:57:03;100586.53;;;0.84;100.00
47670;BME280;33408;52.062;11.722;2022-11-20T10:59:41;100569.44;;;0.80;100.00
47670;BME280;33408;52.062;11.722;2022-11-20T11:02:16;100568.50;;;0.75;100.00
47670;BME280;33408;52.062;11.722;2022-11-20T11:04:45;100567.13;;;0.92;100.00
47670;BME280;33408;52.062;11.722;2022-11-20T11:07:17;100573.25;;;1.02;100.00
47670;BME280;33408;52.062;11.722;2022-11-20T11:09:46;100562.16;;;1.01;100.00
47670;BME280;33408;52.062;11.722;2022-11-20T11:12:13;100562.13;;;1.00;100.00
47670;BME280;33408;52.062;11.722;2022-11-20T11:14:45;100561.47;;;1.08;100.00
47670;BME280;33408;52.062;11.722;2022-11-20T11:17:24;100559.91;;;1.17;100.00
47670;BME280;33408;52.062;11.722;2022-11-20T11:20:05;100558.09;;;1.09;100.00
47670;BME280;33408;52.062;11.722;2022-11-20T11:22:43;100557.28;;;1.14;100.00
47670;BME280;33408;52.062;11.722;2022-11-20T11:25:19;100549.00;;;1.27;100.00
47670;BME280;33408;52.062;11.722;2022-11-20T11:27:46;100542.38;;;1.40;100.00
47670;BME280;33408;52.062;11.722;2022-11-20T11:30:15;100537.34;;;1.44;100.00
47670;BME280;33408;52.062;11.722;2022-11-20T11:32:42;100530.75;;;1.57;100.00
47670;BME280;33408;52.062;11.722;2022-11-20T11:35:21;100531.97;;;1.82;100.00
47670;BME280;33408;52.062;11.722;2022-11-20T11:37:50;100525.97;;;1.79;100.00
47670;BME280;33408;52.062;11.722;2022-11-20T11:40:21;100537.50;;;1.54;100.00
47670;BME280;33408;52.062;11.722;2022-11-20T11:42:53;100551.25;;;1.62;100.00
47670;BME280;33408;52.062;11.722;2022-11-20T11:45:21;100546.09;;;1.59;100.00
47670;BME280;33408;52.062;11.722;2022-11-20T11:47:48;100550.53;;;1.72;100.00
47670;BME280;33408;52.062;11.722;2022-11-20T11:50:17;100549.28;;;2.02;100.00
47670;BME280;33408;52.062;11.722;2022-11-20T11:52:50;100542.47;;;2.04;100.00
47670;BME280;33408;52.062;11.722;2022-11-20T11:55:27;100542.63;;;2.16;100.00
47670;BME280;33408;52.062;11.722;2022-11-20T11:58:02;100548.00;;;2.38;100.00
47670;BME280;33408;52.062;11.722;2022-11-20T12:00:32;100544.72;;;2.47;100.00
47670;BME280;33408;52.062;11.722;2022-11-20T12:03:04;100535.69;;;2.06;100.00
47670;BME280;33408;52.062;11.722;2022-11-20T12:05:38;100538.44;;;2.22;99.83
47670;BME280;33408;52.062;11.722;2022-11-20T12:08:16;100529.81;;;2.13;100.00
47670;BME280;33408;52.062;11.722;2022-11-20T12:10:46;100526.34;;;2.08;100.00
47670;BME280;33408;52.062;11.722;2022-11-20T12:13:24;100519.28;;;1.90;100.00
47670;BME280;33408;52.062;11.722;2022-11-20T12:15:53;100534.84;;;2.07;100.00
47670;BME280;33408;52.062;11.722;2022-11-20T12:18:21;100541.84;;;2.22;100.00
47670;BME280;33408;52.062;11.722;2022-11-20T12:20:56;100538.84;;;2.57;100.00
47670;BME280;33408;52.062;11.722;2022-11-20T12:23:34;100535.53;;;2.63;100.00
47670;BME280;33408;52.062;11.722;2022-11-20T12:26:11;100535.69;;;2.81;100.00
47670;BME280;33408;52.062;11.722;2022-11-20T12:28:51;100533.81;;;2.63;100.00
47670;BME280;33408;52.062;11.722;2022-11-20T12:31:40;100533.66;;;2.51;100.00
47670;BME280;33408;52.062;11.722;2022-11-20T12:37:10;100530.09;;;2.36;100.00
47670;BME280;33408;52.062;11.722;2022-11-20T12:39:47;100531.00;;;2.40;100.00
47670;BME280;33408;52.062;11.722;2022-11-20T12:45:51;100527.59;;;2.43;100.00
47670;BME280;33408;52.062;11.722;2022-11-20T12:48:42;100525.84;;;2.37;100.00
47670;BME280;33408;52.062;11.722;2022-11-20T12:51:28;100523.03;;;2.17;100.00